Time;durP1;ratioP1;P1;durP2;ratioP2;P2;SDS_P1;SDS_P2;PMS_P1;PMS_P2;Temp;Humidity;BMP_temperature;BMP_pressure;BME280_temperature;BME280_humidity;BME280_pressure;Samples;Min_cycle;Max_cycle;Signal;HPM_P1;HPM_P2
2021/04/04 00:01:02;;;;;;;4.87;3.40;;;4.90;55.90;;;;;;5013461;28;20664;-87
2021/04/04 00:03:28;;;;;;;6.07;2.93;;;4.90;55.90;;;;;;4987622;28;20243;-88
2021/04/04 00:05:53;;;;;;;3.90;2.87;;;4.90;57.10;;;;;;4986819;28;20203;-88
2021/04/04 00:08:19;;;;;;;3.67;3.10;;;;;;;;;;4996305;28;20257;-88
2021/04/04 00:10:45;;;;;;;5.30;2.70;;;4.80;56.00;;;;;;5011864;28;20242;-88
2021/04/04 00:13:11;;;;;;;3.77;3.00;;;6.50;58.20;;;;;;5004217;28;20228;-88
2021/04/04 00:15:37;;;;;;;7.10;3.47;;;4.80;56.20;;;;;;4994161;28;20247;-88
2021/04/04 00:18:03;;;;;;;6.70;2.83;;;4.80;57.30;;;;;;4993999;28;20186;-88
2021/04/04 00:20:28;;;;;;;4.50;2.77;;;4.80;57.20;;;;;;4988311;28;20227;-88
2021/04/04 00:22:54;;;;;;;5.80;2.50;;;4.70;57.40;;;;;;5005571;28;20638;-88
2021/04/04 00:25:19;;;;;;;4.63;2.73;;;4.80;57.30;;;;;;4991292;28;20234;-88
2021/04/04 00:27:45;;;;;;;4.70;2.93;;;4.80;57.50;;;;;;4999887;28;20266;-88
2021/04/04 00:30:16;;;;;;;5.40;2.83;;;4.80;57.50;;;;;;4996431;28;20203;-88
2021/04/04 00:32:42;;;;;;;4.97;2.50;;;4.70;57.30;;;;;;4987080;28;21124;-88
2021/04/04 00:35:10;;;;;;;4.87;2.37;;;4.70;57.60;;;;;;4988522;28;20188;-88
2021/04/04 00:37:37;;;;;;;4.07;3.10;;;4.60;57.40;;;;;;4995444;28;20251;-88
2021/04/04 00:40:15;;;;;;;4.13;2.67;;;4.60;57.40;;;;;;4995977;28;20756;-88
2021/04/04 00:42:41;;;;;;;4.23;2.23;;;4.60;57.30;;;;;;4996146;28;20208;-88
2021/04/04 00:45:36;;;;;;;3.40;2.53;;;4.60;56.40;;;;;;5004772;28;20281;-88
2021/04/04 00:48:04;;;;;;;4.40;3.10;;;4.60;56.90;;;;;;4989376;28;20284;-88
2021/04/04 00:50:36;;;;;;;3.53;2.93;;;4.50;56.80;;;;;;4983410;28;20365;-88
2021/04/04 00:53:03;;;;;;;2.70;2.23;;;4.50;57.50;;;;;;4990313;28;20188;-88
2021/04/04 00:55:29;;;;;;;4.60;2.77;;;4.50;57.60;;;;;;5011526;28;20196;-88
2021/04/04 00:57:55;;;;;;;5.70;2.50;;;4.50;58.00;;;;;;4993284;28;20184;-88
2021/04/04 01:00:29;;;;;;;4.03;2.90;;;5.80;59.30;;;;;;4992745;28;20192;-88
2021/04/04 01:02:56;;;;;;;7.97;3.00;;;4.30;58.20;;;;;;5007770;28;20287;-88
2021/04/04 01:05:30;;;;;;;5.43;2.67;;;4.30;58.70;;;;;;4993725;28;20266;-88
2021/04/04 01:07:57;;;;;;;2.57;2.30;;;4.40;59.40;;;;;;5012253;28;20195;-88
2021/04/04 01:10:26;;;;;;;2.63;2.37;;;4.30;59.50;;;;;;5001461;28;20187;-88
2021/04/04 01:12:55;;;;;;;3.00;2.50;;;4.30;59.50;;;;;;5000334;28;20192;-88
2021/04/04 01:15:34;;;;;;;5.97;2.50;;;4.30;59.30;;;;;;4988906;28;20190;-88
2021/04/04 01:18:10;;;;;;;2.63;2.10;;;4.40;57.90;;;;;;5001129;28;20184;-88
2021/04/04 01:20:47;;;;;;;4.73;2.43;;;4.40;57.60;;;;;;5003052;28;20218;-88
2021/04/04 01:23:33;;;;;;;2.80;2.40;;;4.40;56.70;;;;;;5008012;28;20200;-87
2021/04/04 01:26:14;;;;;;;3.83;3.00;;;4.50;57.30;;;;;;4987509;28;20189;-87
2021/04/04 01:28:43;;;;;;;3.67;2.73;;;4.50;55.90;;;;;;4986517;28;20184;-88
2021/04/04 01:31:09;;;;;;;2.30;2.10;;;4.50;55.60;;;;;;4989076;28;20227;-88
2021/04/04 01:33:36;;;;;;;3.50;2.67;;;4.60;55.60;;;;;;5017092;28;20180;-88
2021/04/04 01:36:05;;;;;;;5.40;3.50;;;4.70;56.00;;;;;;4996489;28;20228;-88
2021/04/04 01:38:36;;;;;;;3.77;2.43;;;4.60;56.10;;;;;;4990354;28;20192;-88
2021/04/04 01:41:14;;;;;;;3.97;3.07;;;4.50;56.10;;;;;;4984369;28;20184;-88
2021/04/04 01:43:43;;;;;;;4.20;2.77;;;4.50;56.40;;;;;;4981914;28;20224;-88
2021/04/04 01:46:10;;;;;;;9.57;2.83;;;4.50;56.40;;;;;;4991909;28;21001;-88
2021/04/04 01:48:36;;;;;;;7.67;3.40;;;4.50;56.40;;;;;;5008337;28;20187;-88
2021/04/04 01:51:03;;;;;;;3.63;2.93;;;4.50;56.60;;;;;;5008059;28;20192;-88
2021/04/04 01:53:30;;;;;;;4.33;2.87;;;4.40;56.20;;;;;;5001724;28;20674;-88
2021/04/04 01:55:57;;;;;;;3.10;2.77;;;4.40;56.70;;;;;;4985359;28;20220;-88
2021/04/04 01:58:24;;;;;;;5.03;2.77;;;4.40;56.80;;;;;;5005537;28;20196;-87
2021/04/04 02:00:50;;;;;;;4.73;2.77;;;4.30;57.00;;;;;;4987178;28;20280;-88
2021/04/04 02:03:16;;;;;;;5.50;3.07;;;4.30;56.50;;;;;;5008789;28;20252;-88
2021/04/04 02:05:43;;;;;;;5.07;2.70;;;4.50;57.40;;;;;;4997576;28;20200;-88
2021/04/04 02:08:10;;;;;;;3.87;2.63;;;4.30;58.10;;;;;;4989409;28;20187;-88
2021/04/04 02:10:38;;;;;;;3.47;3.00;;;4.30;57.50;;;;;;5018547;28;20225;-88
2021/04/04 02:13:16;;;;;;;3.23;2.57;;;4.30;58.30;;;;;;5005575;28;20199;-88
2021/04/04 02:15:42;;;;;;;5.47;2.83;;;4.20;58.80;;;;;;5021310;28;20200;-88
2021/04/04 02:18:09;;;;;;;4.00;2.67;;;4.10;58.90;;;;;;4996395;28;20256;-88
2021/04/04 02:20:36;;;;;;;5.30;3.20;;;4.00;58.80;;;;;;4998495;28;20364;-88
2021/04/04 02:23:08;;;;;;;5.00;3.13;;;3.90;59.20;;;;;;4979700;28;20224;-87
2021/04/04 02:25:34;;;;;;;4.77;3.03;;;3.90;59.20;;;;;;4999272;28;20197;-88
2021/04/04 02:28:00;;;;;;;4.23;3.47;;;3.90;59.20;;;;;;4990498;28;20200;-88
2021/04/04 02:30:27;;;;;;;3.13;2.77;;;3.80;59.10;;;;;;4987197;28;20199;-88
2021/04/04 02:33:11;;;;;;;4.77;2.93;;;3.70;59.50;;;;;;4992495;28;20199;-88
2021/04/04 02:35:40;;;;;;;3.70;2.53;;;3.70;60.00;;;;;;5007351;28;20572;-88
2021/04/04 02:38:18;;;;;;;3.50;2.90;;;3.70;60.30;;;;;;4992853;28;20212;-88
2021/04/04 02:40:46;;;;;;;4.30;3.10;;;3.70;60.00;;;;;;5002624;28;20232;-88
2021/04/04 02:43:20;;;;;;;3.73;2.63;;;3.60;59.90;;;;;;5004514;28;20223;-88
2021/04/04 02:45:48;;;;;;;3.17;2.27;;;3.60;60.70;;;;;;4985940;28;21075;-88
2021/04/04 02:48:17;;;;;;;5.47;2.83;;;3.50;60.50;;;;;;4995213;28;20188;-88
2021/04/04 02:50:45;;;;;;;6.57;3.07;;;3.40;60.30;;;;;;5004207;28;20252;-88
2021/04/04 02:53:13;;;;;;;3.00;2.80;;;3.40;61.20;;;;;;4992598;28;20189;-88
2021/04/04 02:55:40;;;;;;;5.20;3.10;;;3.30;61.80;;;;;;5005022;28;20202;-88
2021/04/04 02:58:08;;;;;;;4.73;3.27;;;3.30;62.20;;;;;;5003530;28;20497;-89
2021/04/04 03:00:37;;;;;;;4.17;2.60;;;3.30;62.20;;;;;;4999794;28;20189;-88
2021/04/04 03:03:05;;;;;;;3.87;3.10;;;3.30;61.70;;;;;;4994575;28;20232;-88
2021/04/04 03:05:31;;;;;;;3.00;2.70;;;3.30;62.40;;;;;;4975260;28;20191;-88
2021/04/04 03:08:01;;;;;;;2.73;2.23;;;3.30;62.60;;;;;;4976659;28;20210;-88
2021/04/04 03:10:28;;;;;;;5.37;2.80;;;3.30;62.90;;;;;;5008484;28;20195;-88
2021/04/04 03:12:54;;;;;;;4.53;2.80;;;3.10;62.90;;;;;;5004708;28;20187;-88
2021/04/04 03:15:20;;;;;;;3.70;1.90;;;3.10;63.50;;;;;;4991945;28;20196;-88
2021/04/04 03:17:50;;;;;;;4.83;2.93;;;3.10;63.50;;;;;;4989711;28;20195;-88
2021/04/04 03:20:17;;;;;;;3.40;2.60;;;3.10;63.70;;;;;;5000153;28;20196;-88
2021/04/04 03:22:45;;;;;;;3.63;2.47;;;3.10;63.40;;;;;;4992056;28;20224;-88
2021/04/04 03:25:12;;;;;;;5.83;3.50;;;3.10;63.90;;;;;;4988351;28;20196;-88
2021/04/04 03:27:43;;;;;;;3.23;2.33;;;3.10;63.40;;;;;;4982387;28;20196;-88
2021/04/04 03:30:35;;;;;;;4.27;2.57;;;3.10;63.80;;;;;;4993730;28;20199;-86
2021/04/04 03:32:59;;;;;;;4.43;2.70;;;3.00;64.50;;;;;;5005319;28;20215;-88
2021/04/04 03:35:26;;;;;;;3.67;2.83;;;2.90;64.80;;;;;;4988652;28;20613;-87
2021/04/04 03:37:52;;;;;;;4.33;2.67;;;5.10;67.40;;;;;;5013228;28;20606;-88
2021/04/04 03:40:18;;;;;;;6.33;3.23;;;2.90;65.00;;;;;;4998988;28;20176;-87
2021/04/04 03:42:45;;;;;;;2.87;2.47;;;2.90;65.60;;;;;;4992555;28;20212;-88
2021/04/04 03:45:14;;;;;;;4.77;2.93;;;3.90;66.60;;;;;;4993159;28;20200;-87
2021/04/04 03:47:40;;;;;;;5.57;2.10;;;2.90;66.20;;;;;;5001235;28;20215;-87
2021/04/04 03:50:08;;;;;;;3.70;2.53;;;2.90;66.80;;;;;;4995480;28;20197;-87
2021/04/04 03:52:36;;;;;;;7.37;3.30;;;2.80;66.70;;;;;;4989694;28;20184;-87
2021/04/04 03:55:03;;;;;;;5.60;3.17;;;2.90;66.90;;;;;;5008024;28;20577;-87
2021/04/04 03:57:29;;;;;;;6.33;2.77;;;2.90;66.90;;;;;;4997901;28;20208;-87
2021/04/04 03:59:56;;;;;;;3.27;2.97;;;2.80;66.70;;;;;;4991643;28;20191;-87
2021/04/04 04:02:24;;;;;;;4.63;3.03;;;2.80;66.20;;;;;;4998281;28;20192;-87
2021/04/04 04:04:51;;;;;;;3.60;2.47;;;2.80;66.80;;;;;;4993628;28;20564;-88
2021/04/04 04:07:18;;;;;;;4.50;3.10;;;4.70;68.60;;;;;;4996934;28;20297;-87
2021/04/04 04:09:44;;;;;;;5.20;3.47;;;2.90;67.10;;;;;;4995034;28;20196;-87
2021/04/04 04:12:11;;;;;;;3.17;2.87;;;2.80;67.80;;;;;;4999781;28;20722;-87
2021/04/04 04:14:38;;;;;;;3.87;2.77;;;2.90;68.00;;;;;;4991477;28;20196;-87
2021/04/04 04:17:05;;;;;;;3.70;2.50;;;2.90;67.80;;;;;;4995988;28;20636;-87
2021/04/04 04:19:31;;;;;;;4.10;2.87;;;2.90;68.10;;;;;;4992731;28;20941;-87
2021/04/04 04:21:58;;;;;;;4.40;3.47;;;3.10;67.80;;;;;;4994711;28;20192;-87
2021/04/04 04:24:24;;;;;;;4.17;2.93;;;2.90;67.40;;;;;;4992356;28;20221;-87
2021/04/04 04:26:51;;;;;;;4.13;2.70;;;2.90;67.70;;;;;;4989534;28;20200;-87
2021/04/04 04:29:19;;;;;;;4.83;3.10;;;3.20;68.30;;;;;;5001983;28;20197;-88
2021/04/04 04:31:53;;;;;;;4.27;2.83;;;2.80;68.10;;;;;;5002527;28;20185;-87
2021/04/04 04:34:21;;;;;;;6.33;2.70;;;2.80;68.00;;;;;;4988146;28;20187;-88
2021/04/04 04:36:48;;;;;;;3.60;2.97;;;2.80;68.70;;;;;;4999203;28;20215;-87
2021/04/04 04:39:14;;;;;;;3.63;2.90;;;2.70;68.80;;;;;;5005984;28;20537;-87
2021/04/04 04:41:46;;;;;;;2.43;2.13;;;2.70;69.20;;;;;;4999437;28;20176;-87
2021/04/04 04:44:22;;;;;;;7.93;2.70;;;2.80;69.20;;;;;;5001230;28;20275;-87
2021/04/04 04:46:48;;;;;;;3.93;2.30;;;2.80;69.80;;;;;;5013360;28;20187;-87
2021/04/04 04:49:15;;;;;;;4.30;2.67;;;3.40;70.10;;;;;;4998950;28;20195;-87
2021/04/04 04:51:41;;;;;;;4.63;2.70;;;2.90;69.50;;;;;;4973543;28;20189;-87
2021/04/04 04:54:08;;;;;;;4.30;2.87;;;2.80;69.60;;;;;;4990710;28;20188;-87
2021/04/04 04:56:39;;;;;;;4.27;2.30;;;2.70;69.30;;;;;;5005815;28;20235;-87
2021/04/04 04:59:06;;;;;;;6.83;3.00;;;2.80;69.20;;;;;;5005110;28;20284;-87
2021/04/04 05:01:46;;;;;;;5.37;2.50;;;2.80;68.60;;;;;;4989278;28;20196;-88
2021/04/04 05:04:12;;;;;;;5.23;3.50;;;2.80;68.90;;;;;;4987614;28;20290;-87
2021/04/04 05:06:38;;;;;;;5.17;2.60;;;2.80;69.40;;;;;;4990156;28;20216;-87
2021/04/04 05:09:07;;;;;;;5.00;3.30;;;2.90;70.00;;;;;;4992454;28;20739;-87
2021/04/04 05:11:43;;;;;;;8.60;3.23;;;2.90;70.40;;;;;;5004675;28;20207;-87
2021/04/04 05:14:12;;;;;;;4.63;3.13;;;3.00;71.20;;;;;;4991699;28;20200;-87
2021/04/04 05:16:39;;;;;;;4.40;2.83;;;3.20;71.30;;;;;;5012972;28;20281;-87
2021/04/04 05:19:11;;;;;;;6.60;3.20;;;3.30;71.10;;;;;;5004451;28;20204;-87
2021/04/04 05:21:38;;;;;;;5.27;3.33;;;3.40;70.60;;;;;;4971186;28;20189;-87
2021/04/04 05:24:06;;;;;;;6.60;3.43;;;3.30;70.20;;;;;;4993608;28;20224;-88
2021/04/04 05:26:40;;;;;;;6.90;3.10;;;3.30;70.10;;;;;;5002838;28;20192;-87
2021/04/04 05:29:15;;;;;;;5.13;2.17;;;5.80;73.00;;;;;;5003685;28;20181;-87
2021/04/04 05:31:51;;;;;;;7.30;3.17;;;3.30;71.30;;;;;;4974951;28;20179;-88
2021/04/04 05:34:19;;;;;;;3.23;2.57;;;3.30;70.50;;;;;;4997691;28;20229;-87
2021/04/04 05:36:53;;;;;;;4.47;3.57;;;3.30;70.00;;;;;;4986486;28;20291;-88
2021/04/04 05:39:20;;;;;;;4.20;3.10;;;3.30;70.60;;;;;;5002139;28;20245;-87
2021/04/04 05:41:49;;;;;;;3.47;2.53;;;3.40;69.60;;;;;;5003843;28;20196;-87
2021/04/04 05:44:17;;;;;;;6.27;3.37;;;3.30;70.00;;;;;;4975598;28;20219;-88
2021/04/04 05:46:46;;;;;;;2.40;2.13;;;3.50;69.40;;;;;;4991733;28;20283;-87
2021/04/04 05:49:18;;;;;;;6.73;3.03;;;3.40;69.70;;;;;;4986420;28;20210;-89
2021/04/04 05:52:17;;;;;;;4.93;3.20;;;5.70;70.90;;;;;;5002930;28;20598;-87
2021/04/04 05:55:06;;;;;;;4.27;3.27;;;3.80;68.40;;;;;;4983294;28;20223;-87
2021/04/04 05:58:06;;;;;;;6.03;3.43;;;3.70;68.60;;;;;;4987421;28;20235;-87
2021/04/04 06:00:34;;;;;;;6.70;2.90;;;3.70;68.70;;;;;;5001575;28;20189;-88
2021/04/04 06:03:15;;;;;;;3.03;2.60;;;3.80;68.60;;;;;;4999736;28;20311;-88
2021/04/04 06:06:30;;;;;;;4.10;3.00;;;3.90;69.10;;;;;;5002148;28;20212;-88
2021/04/04 06:09:22;;;;;;;4.50;2.83;;;4.00;69.30;;;;;;5000032;28;20188;-87
2021/04/04 06:12:25;;;;;;;2.73;2.53;;;4.20;69.30;;;;;;5004704;28;20267;-88
2021/04/04 06:14:54;;;;;;;2.77;2.40;;;;;;;;;;4984005;28;20193;-87
2021/04/04 06:17:23;;;;;;;10.63;3.33;;;4.60;66.50;;;;;;4994493;28;20226;-87
2021/04/04 06:20:01;;;;;;;6.57;2.83;;;4.60;68.20;;;;;;5003186;28;20185;-89
2021/04/04 06:22:35;;;;;;;5.73;2.67;;;4.60;67.90;;;;;;4991685;28;20683;-88
2021/04/04 06:25:39;;;;;;;4.50;3.00;;;4.70;68.40;;;;;;4990940;28;20200;-87
2021/04/04 06:28:12;;;;;;;3.87;2.90;;;4.80;65.90;;;;;;5000117;28;20185;-88
2021/04/04 06:30:46;;;;;;;4.27;2.87;;;5.00;66.10;;;;;;4992862;28;20233;-88
2021/04/04 06:33:23;;;;;;;4.33;2.87;;;5.20;66.70;;;;;;5003618;28;20179;-87
2021/04/04 06:36:23;;;;;;;5.03;3.10;;;5.40;66.40;;;;;;4997841;28;20259;-87
2021/04/04 06:39:25;;;;;;;7.10;3.53;;;5.70;63.60;;;;;;5004145;28;20227;-87
2021/04/04 06:42:00;;;;;;;5.57;2.77;;;5.70;63.90;;;;;;5005668;28;20771;-87
2021/04/04 06:44:38;;;;;;;6.40;3.83;;;5.90;62.80;;;;;;5000161;28;20224;-87
2021/04/04 06:47:27;;;;;;;4.57;3.37;;;6.00;62.30;;;;;;4994866;28;20589;-87
2021/04/04 06:50:16;;;;;;;6.60;2.77;;;6.10;61.50;;;;;;5009475;28;20629;-86
2021/04/04 06:52:56;;;;;;;7.53;3.43;;;6.00;61.60;;;;;;4986626;28;20195;-87
2021/04/04 06:55:24;;;;;;;4.40;2.83;;;6.20;62.20;;;;;;4996066;28;20180;-85
2021/04/04 06:57:53;;;;;;;7.80;2.87;;;6.20;61.60;;;;;;5006658;28;20184;-85
2021/04/04 07:00:22;;;;;;;7.47;3.80;;;6.40;61.30;;;;;;4988787;28;20188;-85
2021/04/04 07:03:10;;;;;;;6.27;3.37;;;6.60;59.40;;;;;;4995671;28;20218;-86
2021/04/04 07:05:42;;;;;;;9.33;3.90;;;6.70;59.70;;;;;;5011930;28;20204;-85
2021/04/04 07:08:29;;;;;;;5.07;3.23;;;6.90;59.50;;;;;;5002806;28;20181;-86
2021/04/04 07:11:24;;;;;;;4.57;3.30;;;6.70;59.70;;;;;;5008640;28;20181;-88
2021/04/04 07:14:11;;;;;;;5.87;3.40;;;6.90;59.00;;;;;;5015015;28;20186;-87
2021/04/04 07:17:21;;;;;;;7.43;3.23;;;6.90;59.60;;;;;;4987204;28;20718;-84
2021/04/04 07:20:08;;;;;;;4.93;3.00;;;7.10;59.70;;;;;;4932837;29;20198;-88
2021/04/04 07:22:52;;;;;;;4.57;3.33;;;7.20;59.30;;;;;;5020831;28;20171;-87
2021/04/04 07:25:53;;;;;;;4.30;3.13;;;7.30;58.60;;;;;;5009884;28;20189;-88
2021/04/04 07:28:32;;;;;;;8.43;3.30;;;7.60;57.70;;;;;;4950300;28;20502;-88
2021/04/04 07:31:00;;;;;;;5.40;3.20;;;7.80;56.60;;;;;;4994966;28;20271;-88
2021/04/04 07:33:37;;;;;;;8.27;3.60;;;7.90;56.00;;;;;;5011668;28;20722;-88
2021/04/04 07:36:05;;;;;;;6.23;3.87;;;7.90;56.60;;;;;;5006106;28;20687;-88
2021/04/04 07:38:53;;;;;;;9.50;4.07;;;8.10;56.30;;;;;;5007413;28;20273;-88
2021/04/04 07:41:51;;;;;;;6.03;3.07;;;8.20;55.60;;;;;;5008014;28;20208;-89
2021/04/04 07:44:35;;;;;;;4.23;3.47;;;8.30;55.40;;;;;;4987159;28;20232;-81
2021/04/04 07:47:32;;;;;;;8.40;3.27;;;8.40;56.20;;;;;;4991982;28;20188;-80
2021/04/04 07:50:13;;;;;;;5.97;3.03;;;8.60;55.90;;;;;;4980954;28;20187;-87
2021/04/04 07:53:17;;;;;;;7.40;3.23;;;8.70;53.00;;;;;;4999336;28;20791;-88
2021/04/04 07:55:52;;;;;;;5.40;3.20;;;8.50;53.00;;;;;;4998838;28;20258;-87
2021/04/04 07:58:37;;;;;;;6.03;3.57;;;8.70;52.80;;;;;;4997870;28;20192;-88
2021/04/04 08:01:16;;;;;;;7.70;4.10;;;8.90;52.10;;;;;;4998649;28;20197;-88
2021/04/04 08:04:00;;;;;;;5.43;3.10;;;8.80;51.20;;;;;;4998167;28;20216;-87
2021/04/04 08:07:04;;;;;;;7.73;3.73;;;8.80;52.30;;;;;;4984639;28;20194;-87
2021/04/04 08:09:41;;;;;;;8.70;3.67;;;9.00;50.90;;;;;;4997297;28;20193;-87
2021/04/04 08:12:35;;;;;;;5.97;3.00;;;9.00;51.20;;;;;;4981674;28;20233;-85
2021/04/04 08:15:07;;;;;;;7.37;3.80;;;8.90;51.50;;;;;;4984696;28;20189;-85
2021/04/04 08:17:36;;;;;;;4.50;3.27;;;8.90;51.70;;;;;;5002291;28;20227;-85
2021/04/04 08:20:17;;;;;;;4.77;3.20;;;9.00;51.60;;;;;;4995380;28;20224;-84
2021/04/04 08:22:49;;;;;;;8.20;3.00;;;9.10;51.30;;;;;;4995850;28;20216;-84
2021/04/04 08:25:21;;;;;;;5.77;3.30;;;9.10;50.60;;;;;;5010698;28;20198;-84
2021/04/04 08:27:55;;;;;;;9.67;3.93;;;9.00;50.80;;;;;;5001162;28;20601;-84
2021/04/04 08:30:29;;;;;;;6.10;3.43;;;9.20;50.60;;;;;;5001672;28;20281;-83
2021/04/04 08:33:02;;;;;;;6.43;2.87;;;9.50;50.00;;;;;;5005812;28;20189;-84
2021/04/04 08:35:35;;;;;;;5.73;3.50;;;9.50;49.60;;;;;;5010470;28;20267;-84
2021/04/04 08:38:06;;;;;;;8.07;3.87;;;9.50;49.80;;;;;;5004043;28;20307;-83
2021/04/04 08:40:32;;;;;;;6.03;3.20;;;9.60;48.50;;;;;;5008514;28;20763;-83
2021/04/04 08:42:58;;;;;;;12.13;4.00;;;9.60;49.00;;;;;;5010765;28;20248;-84
2021/04/04 08:45:42;;;;;;;11.30;3.40;;;9.70;48.90;;;;;;4999477;28;20204;-84
2021/04/04 08:48:09;;;;;;;7.43;2.77;;;9.90;48.60;;;;;;5011751;28;20187;-84
2021/04/04 08:50:37;;;;;;;3.13;2.83;;;10.00;46.80;;;;;;5008781;28;20276;-83
2021/04/04 08:53:24;;;;;;;6.13;3.30;;;9.90;47.60;;;;;;4996582;28;20185;-84
2021/04/04 08:55:51;;;;;;;7.13;3.47;;;10.10;47.30;;;;;;4991341;28;20180;-88
2021/04/04 08:58:20;;;;;;;6.03;3.63;;;9.90;48.20;;;;;;4989636;28;20662;-87
2021/04/04 09:00:50;;;;;;;8.77;3.70;;;9.90;48.60;;;;;;4982693;28;20194;-88
2021/04/04 09:03:23;;;;;;;12.30;4.23;;;9.90;47.70;;;;;;5033867;22;20303;-67
2021/04/04 09:05:48;;;;;;;7.50;3.17;;;10.00;47.00;;;;;;4995620;28;20262;-67
2021/04/04 09:08:16;;;;;;;6.47;3.63;;;10.00;47.60;;;;;;4991868;28;20198;-66
2021/04/04 09:10:44;;;;;;;6.67;3.90;;;10.10;47.30;;;;;;4990739;28;20185;-66
2021/04/04 09:13:14;;;;;;;8.17;4.00;;;10.20;46.40;;;;;;4997663;28;20202;-66
2021/04/04 09:15:48;;;;;;;7.27;4.57;;;10.20;45.90;;;;;;4989453;28;20740;-66
2021/04/04 09:18:15;;;;;;;9.53;4.17;;;10.10;45.90;;;;;;4985564;28;20197;-66
2021/04/04 09:20:44;;;;;;;5.90;3.33;;;10.00;46.10;;;;;;4988531;28;20196;-66
2021/04/04 09:23:11;;;;;;;10.37;3.30;;;10.00;46.20;;;;;;4991208;28;20208;-66
2021/04/04 09:25:46;;;;;;;7.27;4.20;;;10.50;45.30;;;;;;4994166;28;20190;-66
2021/04/04 09:28:12;;;;;;;5.80;3.83;;;10.80;45.00;;;;;;4992125;28;20227;-66
2021/04/04 09:30:40;;;;;;;6.93;4.07;;;11.10;42.80;;;;;;4987306;28;20203;-66
2021/04/04 09:33:10;;;;;;;8.27;4.33;;;11.20;41.70;;;;;;4974942;28;20199;-66
2021/04/04 09:35:38;;;;;;;10.77;3.53;;;11.20;41.80;;;;;;4990071;28;20210;-66
2021/04/04 09:38:15;;;;;;;8.27;3.90;;;11.20;42.00;;;;;;4989008;28;20196;-66
2021/04/04 09:40:43;;;;;;;4.67;3.63;;;11.60;41.90;;;;;;4985987;28;20196;-66
2021/04/04 09:43:12;;;;;;;7.13;4.07;;;11.50;41.30;;;;;;4991981;28;20549;-66
2021/04/04 09:45:39;;;;;;;6.93;3.70;;;11.10;41.40;;;;;;4988089;28;20199;-67
2021/04/04 09:48:17;;;;;;;7.43;4.33;;;11.10;42.50;;;;;;4987519;28;20203;-66
2021/04/04 09:50:42;;;;;;;8.77;4.30;;;11.40;42.90;;;;;;4992602;28;20689;-68
2021/04/04 09:53:08;;;;;;;6.33;3.77;;;11.70;41.30;;;;;;4993848;28;20205;-67
2021/04/04 09:55:33;;;;;;;7.07;4.07;;;11.70;39.90;;;;;;4988738;28;20742;-68
2021/04/04 09:58:01;;;;;;;6.10;4.33;;;11.70;39.80;;;;;;4991204;28;20195;-67
2021/04/04 10:00:39;;;;;;;5.30;4.20;;;10.90;42.90;;;;;;4972608;28;20220;-68
2021/04/04 10:03:14;;;;;;;6.90;4.00;;;10.70;43.30;;;;;;4993895;28;20236;-67
2021/04/04 10:05:42;;;;;;;4.97;4.47;;;10.60;42.20;;;;;;4992921;28;20221;-67
2021/04/04 10:08:24;;;;;;;9.37;4.30;;;10.60;42.30;;;;;;4985394;28;20192;-67
2021/04/04 10:10:53;;;;;;;5.47;3.63;;;10.70;41.40;;;;;;4994038;28;20192;-68
2021/04/04 10:13:29;;;;;;;5.47;4.13;;;10.90;41.10;;;;;;4987807;28;20247;-64
2021/04/04 10:15:56;;;;;;;6.80;4.37;;;11.00;40.60;;;;;;4994406;28;20223;-68
2021/04/04 10:18:23;;;;;;;7.87;4.03;;;11.10;40.60;;;;;;4994524;28;20868;-69
2021/04/04 10:20:57;;;;;;;7.23;4.07;;;11.20;40.70;;;;;;4996319;28;20198;-68
2021/04/04 10:23:34;;;;;;;6.20;4.07;;;11.40;40.10;;;;;;4997643;28;20620;-68
2021/04/04 10:26:07;;;;;;;7.90;4.43;;;11.50;39.90;;;;;;4995880;28;20202;-68
2021/04/04 10:28:55;;;;;;;6.27;3.77;;;11.60;39.80;;;;;;4992249;28;20644;-66
2021/04/04 10:31:24;;;;;;;6.37;4.40;;;11.60;40.10;;;;;;4992205;28;20196;-66
2021/04/04 10:34:03;;;;;;;9.10;3.97;;;11.60;39.40;;;;;;4993408;28;20235;-67
2021/04/04 10:36:29;;;;;;;10.23;3.83;;;11.50;40.00;;;;;;4996902;28;20226;-67
2021/04/04 10:38:56;;;;;;;9.10;4.50;;;11.40;40.00;;;;;;4990284;28;20279;-67
2021/04/04 10:41:28;;;;;;;6.10;3.73;;;11.20;38.80;;;;;;4997698;28;20202;-67
2021/04/04 10:43:55;;;;;;;4.83;3.47;;;11.40;38.50;;;;;;4997953;28;20219;-67
2021/04/04 10:46:25;;;;;;;10.03;4.53;;;11.50;38.60;;;;;;4995733;28;20210;-67
2021/04/04 10:48:52;;;;;;;7.47;4.87;;;11.50;38.60;;;;;;4999935;28;20204;-67
2021/04/04 10:51:20;;;;;;;7.43;3.67;;;11.50;38.60;;;;;;4997274;28;20251;-67
2021/04/04 10:53:46;;;;;;;6.43;3.97;;;11.50;38.60;;;;;;5001415;28;20279;-67
2021/04/04 10:56:13;;;;;;;2.20;2.00;;;11.70;38.30;;;;;;4996193;28;20220;-67
2021/04/04 10:58:40;;;;;;;4.17;2.97;;;11.70;38.80;;;;;;4998391;28;20304;-66
2021/04/04 11:01:07;;;;;;;9.50;3.90;;;11.50;38.60;;;;;;4996022;28;20189;-67
2021/04/04 11:03:33;;;;;;;8.97;4.57;;;11.60;38.90;;;;;;5011630;28;20264;-67
2021/04/04 11:06:00;;;;;;;12.50;4.40;;;11.80;38.90;;;;;;4993407;28;20692;-67
2021/04/04 11:08:26;;;;;;;5.70;4.07;;;12.00;39.10;;;;;;4997230;28;20192;-67
2021/04/04 11:10:52;;;;;;;5.37;4.27;;;11.80;38.90;;;;;;4994567;28;20257;-66
2021/04/04 11:13:24;;;;;;;7.27;4.00;;;11.80;38.40;;;;;;4996818;28;20197;-67
2021/04/04 11:15:57;;;;;;;11.33;4.73;;;11.80;38.90;;;;;;5011108;28;20232;-67
2021/04/04 11:18:44;;;;;;;7.93;4.30;;;12.10;39.20;;;;;;4997228;28;20203;-67
2021/04/04 11:21:17;;;;;;;4.87;3.80;;;12.40;38.00;;;;;;4991735;28;20192;-66
2021/04/04 11:23:44;;;;;;;4.90;3.80;;;12.40;37.70;;;;;;4999044;28;20215;-67
2021/04/04 11:26:29;;;;;;;7.03;4.37;;;12.30;36.70;;;;;;4992250;28;20262;-67
2021/04/04 11:29:08;;;;;;;9.90;4.60;;;12.40;37.40;;;;;;4996339;28;20254;-67
2021/04/04 11:31:33;;;;;;;7.57;4.67;;;12.10;37.50;;;;;;5000137;28;20184;-67
2021/04/04 11:34:29;;;;;;;8.20;4.10;;;12.50;36.90;;;;;;4997461;28;20209;-67
2021/04/04 11:36:55;;;;;;;10.30;4.50;;;12.60;37.30;;;;;;4997104;28;20291;-67
2021/04/04 11:39:21;;;;;;;8.37;4.47;;;12.50;37.40;;;;;;4996198;28;20548;-67
2021/04/04 11:42:19;;;;;;;11.30;4.00;;;12.70;36.20;;;;;;4998098;28;20192;-66
2021/04/04 11:44:52;;;;;;;8.20;4.13;;;12.90;35.50;;;;;;4999743;28;20239;-67
2021/04/04 11:47:17;;;;;;;8.43;4.60;;;12.80;35.80;;;;;;5001948;28;20643;-67
2021/04/04 11:49:48;;;;;;;8.43;3.83;;;13.40;35.20;;;;;;4999708;28;20192;-67
2021/04/04 11:52:16;;;;;;;5.37;4.00;;;14.20;33.90;;;;;;5001670;28;20287;-67
2021/04/04 11:54:45;;;;;;;8.57;4.47;;;15.00;31.00;;;;;;4997147;28;20192;-67
2021/04/04 11:57:17;;;;;;;6.07;4.40;;;14.90;31.60;;;;;;4983672;28;20219;-67
2021/04/04 11:59:42;;;;;;;8.87;4.50;;;15.30;32.30;;;;;;4999966;28;20357;-67
2021/04/04 12:02:10;;;;;;;8.00;4.00;;;15.20;31.20;;;;;;5001578;28;20720;-67
2021/04/04 12:04:44;;;;;;;9.83;5.47;;;14.70;32.30;;;;;;5000339;28;20297;-67
2021/04/04 12:07:15;;;;;;;6.93;4.57;;;15.00;31.60;;;;;;5003464;28;20200;-67
2021/04/04 12:09:45;;;;;;;7.40;4.43;;;15.30;31.60;;;;;;5000208;28;20288;-67
2021/04/04 12:12:12;;;;;;;10.83;6.10;;;15.20;31.30;;;;;;5000958;28;20268;-67
2021/04/04 12:15:04;;;;;;;5.83;4.87;;;15.00;30.60;;;;;;5000950;28;20200;-67
2021/04/04 12:17:31;;;;;;;7.63;5.47;;;15.80;30.50;;;;;;4992535;28;20284;-67
2021/04/04 12:19:58;;;;;;;7.33;4.27;;;15.90;30.50;;;;;;5014833;28;20201;-67
2021/04/04 12:22:53;;;;;;;5.43;3.37;;;16.20;29.50;;;;;;4981211;28;20237;-67
2021/04/04 12:25:25;;;;;;;5.73;4.13;;;14.80;31.10;;;;;;4978069;28;20227;-67
2021/04/04 12:27:52;;;;;;;7.90;5.07;;;15.00;31.80;;;;;;4998661;28;20198;-68
2021/04/04 12:30:36;;;;;;;12.97;5.50;;;15.40;30.80;;;;;;4999098;28;24375;-68
2021/04/04 12:33:11;;;;;;;8.87;5.00;;;16.40;29.10;;;;;;5000195;28;20205;-68
2021/04/04 12:35:40;;;;;;;8.97;5.60;;;16.20;29.30;;;;;;5000397;28;20220;-68
2021/04/04 12:38:06;;;;;;;12.00;5.70;;;16.90;28.90;;;;;;4999245;28;20736;-66
2021/04/04 12:40:33;;;;;;;6.00;4.63;;;17.00;28.80;;;;;;4999588;28;20224;-68
2021/04/04 12:43:00;;;;;;;8.60;5.20;;;18.10;27.30;;;;;;4996462;28;20786;-68
2021/04/04 12:45:37;;;;;;;12.43;4.63;;;17.30;27.50;;;;;;4999532;28;20200;-68
2021/04/04 12:48:14;;;;;;;10.73;5.13;;;16.90;27.90;;;;;;4996416;28;20200;-68
2021/04/04 12:50:40;;;;;;;10.37;5.20;;;16.40;29.00;;;;;;5000141;28;20199;-68
2021/04/04 12:53:05;;;;;;;8.97;4.97;;;17.00;28.10;;;;;;5005824;28;20212;-68
2021/04/04 12:55:33;;;;;;;9.23;5.10;;;17.20;27.00;;;;;;4996383;28;20223;-67
2021/04/04 12:58:00;;;;;;;14.80;5.43;;;17.10;27.30;;;;;;4999326;28;20646;-65
2021/04/04 13:00:29;;;;;;;10.27;5.77;;;16.20;28.40;;;;;;4992536;28;20311;-67
2021/04/04 13:02:57;;;;;;;8.17;5.90;;;16.00;28.60;;;;;;4978394;28;20285;-67
2021/04/04 13:05:24;;;;;;;8.47;5.17;;;16.50;28.20;;;;;;4998477;28;20239;-68
2021/04/04 13:07:50;;;;;;;11.13;6.13;;;16.10;28.50;;;;;;4996887;28;20203;-65
2021/04/04 13:10:15;;;;;;;12.07;6.13;;;16.00;28.80;;;;;;4998853;28;20192;-67
2021/04/04 13:12:42;;;;;;;8.93;5.10;;;15.50;29.20;;;;;;4999290;28;20187;-66
2021/04/04 13:15:08;;;;;;;6.73;4.90;;;16.40;28.40;;;;;;4997786;28;20196;-66
2021/04/04 13:17:41;;;;;;;9.77;5.10;;;16.30;28.30;;;;;;5000323;28;20202;-68
2021/04/04 13:20:08;;;;;;;10.97;5.03;;;16.10;28.70;;;;;;4994122;28;20200;-67